Fédération internationale de Ski
Member Section
Print

OFFICIAL RESULTS

Lake Louise (CAN) 28.11.2009

FIS World Cup - Men's FIS World Cup OFFICIAL RESULTS

Race codex : 0340
Valid for FIS Points : YES



Jury
TD FIS TURTON FRED USA
Referee
Chief of Race
Technical Data
Start Altitude m.
Finish Altitude m.
Vertical Drop 0 m.
Course Length m.
Homologation Number
 
Show more info»

Competitors

Rank Bib FIS Code Name Year Nation Total Time Diff. FIS Points WC Points
 1  18  510030 CUCHE Didier  1974  SUI   1:50.31     0.00  100
 2  9  292514 HEEL Werner  1982  ITA   1:50.75  +0.44  5.27  80
 3  15  511313 JANKA Carlo  1986  SUI   1:50.93  +0.62  7.42  60
 4  16  50041 WALCHHOFER Michael  1975  AUT   1:50.98  +0.67  8.02  50
 5  10  510767 HOFFMANN Ambrosi  1977  SUI   1:51.07  +0.76  9.09  45
 6  14  102873 KUCERA John  1984  CAN   1:51.12  +0.81  9.69  40
 7  55  500150 JAERBYN Patrik  1969  SWE   1:51.25  +0.94  11.25  36
 8  7  102961 DIXON Robbie  1985  CAN   1:51.30  +0.99  11.85  32
 9  41  510747 GRUENENFELDER Tobias  1977  SUI   1:51.33  +1.02  12.21  29
 10  11  501076 OLSSON Hans  1984  SWE   1:51.34  +1.03  12.33  26
 11  43  511139 KUENG Patrick  1984  SUI   1:51.40  +1.09  13.04  24
 12  62  530939 WEIBRECHT Andrew  1986  USA   1:51.41  +1.10  13.16  22
 13  3  192746 THEAUX Adrien  1984  FRA   1:51.49  +1.18  14.12  20
 14  19  50753 KROELL Klaus  1980  AUT   1:51.50  +1.19  14.24  18
 15  1  51215 BAUMANN Romed  1986  AUT   1:51.53  +1.22  14.60  16
 16  22  510727 DEFAGO Didier  1977  SUI   1:51.57  +1.26  15.08  15
 16  17  102899 OSBORNE-PARADIS Manuel  1984  CAN   1:51.57  +1.26  15.08  15
 18  33  380260 KOSTELIC Ivica  1979  CRO   1:51.62  +1.31  15.68  13
 19  67  511383 FEUZ Beat  1987  SUI   1:51.70  +1.39  16.63  12
 20  44  290998 STAUDACHER Patrick  1980  ITA   1:51.83  +1.52  18.19  11
 21  13  102263 GUAY Erik  1981  CAN   1:51.87  +1.56  18.67  10
 22  60  103090 HELIE Louis-Pierre  1986  CAN   1:51.88  +1.57  18.79  9
 23  49  561067 PERKO Rok  1985  SLO   1:51.95  +1.64  19.62  8
 24  6  191116 DALCIN Pierre-Emmanuel  1977  FRA   1:52.00  +1.69  20.22  7
 25  61  380292 ZRNCIC-DIM Natko  1986  CRO   1:52.11  +1.80  21.54  6
 26  42  191591 BERTRAND Yannick  1980  FRA   1:52.14  +1.83  21.90  5
 27  32  510890 ZURBRIGGEN Silvan  1981  SUI   1:52.22  +1.91  22.86  4
 28  63  40171 BRANCH Craig  1977  AUS   1:52.31  +2.00  23.93  3
 29  21  532431 MILLER Bode  1977  USA   1:52.42  +2.11  25.25  2
 29  12  293006 INNERHOFER Christof  1984  ITA   1:52.42  +2.11  25.25  2
 31  8  350032 BUECHEL Marco  1971  LIE   1:52.43  +2.12  25.37  0
 32  51  192932 FAYED Guillermo  1985  FRA   1:52.45  +2.14  25.61  0
 33  20  421328 SVINDAL Aksel Lund  1982  NOR   1:52.51  +2.20  26.33  0
 34  65  421483 JANSRUD Kjetil  1985  NOR   1:52.56  +2.25  26.92  0
 35  38  102271 HUDEC Jan  1981  CAN   1:52.62  +2.31  27.64  0
 36  53  150421 ZAHROBSKY Petr  1980  CZE   1:52.63  +2.32  27.76  0
 37  58  201987 STRODL Andreas  1987  GER   1:52.68  +2.37  28.36  0
 38  39  201606 KEPPLER Stephan  1983  GER   1:52.70  +2.39  28.60  0
 39  47  510498 ZUEGER Cornel  1981  SUI   1:52.72  +2.41  28.84  0
 40  37  51005 SCHEIBER Mario  1983  AUT   1:52.75  +2.44  29.20  0
 41  64  103375 NELLA Tyler  1988  CAN   1:52.77  +2.46  29.44  0
 42  34  560447 SPORN Andrej  1981  SLO   1:52.90  +2.59  30.99  0
 43  46  201702 NEUREUTHER Felix  1984  GER   1:52.92  +2.61  31.23  0
 44  48  201811 STECHERT Tobias  1985  GER   1:52.94  +2.63  31.47  0
 45  45  561087 MARKIC Gasper  1986  SLO   1:52.98  +2.67  31.95  0
 46  30  292291 THANEI Stefan  1981  ITA   1:52.99  +2.68  32.07  0
 47  4  50695 BUDER Andreas  1979  AUT   1:53.04  +2.73  32.67  0
 48  27  560332 JERMAN Andrej  1978  SLO   1:53.09  +2.78  33.27  0
 48  5  50858 STREITBERGER Georg  1981  AUT   1:53.09  +2.78  33.27  0
 50  57  533762 TRANSUE Jeremy  1983  USA   1:53.16  +2.85  34.10  0
 51  54  511039 KREUZER Ralf  1983  SUI   1:53.21  +2.90  34.70  0
 52  26  191740 CLAREY Johan  1981  FRA   1:53.27  +2.96  35.42  0
 53  66  421400 MYHRE Lars Elton  1984  NOR   1:53.31  +3.00  35.90  0
 53  23  533131 SULLIVAN Marco  1980  USA   1:53.31  +3.00  35.90  0
 55  59  150398 BANK Ondrej  1980  CZE   1:53.37  +3.06  36.62  0
 56  36  50833 GRUGGER Hans  1981  AUT   1:53.42  +3.11  37.22  0
 57  56  51332 SCHEIBER Florian  1987  AUT   1:53.52  +3.21  38.41  0
 57  2  50625 RAICH Benjamin  1978  AUT   1:53.52  +3.21  38.41  0
 59  40  53817 FRANZ Max  1989  AUT   1:53.55  +3.24  38.77  0
 60  25  534939 FISHER Erik  1985  USA   1:53.70  +3.39  40.57  0
 61  68  220695 CRAWFORD Douglas  1987  GBR   1:53.92  +3.61  43.20  0
 62  28  50451 GRUBER Christoph  1976  AUT   1:53.96  +3.65  43.68  0
 63  50  201542 STRODL Peter  1982  GER   1:54.34  +4.03  48.22  0
 64  29  533866 NYMAN Steven  1982  USA   1:54.38  +4.07  48.70  0
 65  31  191964 POISSON David  1982  FRA   1:54.44  +4.13  49.42  0
 66  69  501230 ERICSSON Daniel  1987  SWE   1:54.57  +4.26  50.98  0
 67  73  380291 RATKIC Ivan  1986  CRO   1:54.66  +4.35  52.05  0
 68  70  491129 TERRA Ferran  1987  ESP   1:55.96  +5.65  67.61  0
 69  72  191778 PICHOT Sebastien  1981  FRA   1:56.15  +5.84  69.88  0
 70  75  480736 HOROSHILOV Alexandr  1984  RUS   1:56.37  +6.06  72.52  0
 71  35  532490 MACARTNEY Scott  1978  USA   1:58.34  +8.03  96.09  0
 72  76  550022 RODE Roberts  1987  LAT   1:59.42  +9.11  109.01  0
Did not finish 1st run
     534567 LANNING T J  1984  USA         0
     291459 PARIS Dominik  1989  ITA         0
     530874 GANONG Travis  1988  USA         0
     700724 BABUSIAK Jaroslav  1984  SVK         0
     90047 GEORGIEV Stefan  1977  BUL         0
     430429 BYDLINSKI Maciej  1988  POL         0